Time;durP1;ratioP1;P1;durP2;ratioP2;P2;SDS_P1;SDS_P2;PMS_P1;PMS_P2;Temp;Humidity;BMP_temperature;BMP_pressure;BME280_temperature;BME280_humidity;BME280_pressure;Samples;Min_cycle;Max_cycle;Signal;HPM_P1;HPM_P2
2021/10/14 00:01:32;;;;;;;;;;;22.40;46.50;;;;;;1645612;71;764;-72
2021/10/14 00:03:34;;;;;;;;;;;22.40;46.50;;;;;;1638612;71;1146;-73
2021/10/14 00:05:36;;;;;;;;;;;22.40;46.50;;;;;;1628823;71;748;-71
2021/10/14 00:07:37;;;;;;;;;;;22.40;46.50;;;;;;1630123;71;752;-72
2021/10/14 00:09:39;;;;;;;;;;;22.30;46.60;;;;;;1635908;71;740;-73
2021/10/14 00:11:41;;;;;;;;;;;22.30;46.50;;;;;;1630014;71;758;-71
2021/10/14 00:13:43;;;;;;;;;;;22.40;46.50;;;;;;1630530;71;1937;-74
2021/10/14 00:15:45;;;;;;;;;;;22.40;46.50;;;;;;1638901;71;795;-72
2021/10/14 00:17:47;;;;;;;;;;;22.40;46.50;;;;;;1629358;72;612;-73
2021/10/14 00:19:49;;;;;;;;;;;22.40;46.50;;;;;;1628053;71;815;-75
2021/10/14 00:21:51;;;;;;;;;;;22.30;46.50;;;;;;1629295;72;760;-73
2021/10/14 00:23:52;;;;;;;;;;;22.40;46.50;;;;;;1637122;71;1130;-73
2021/10/14 00:25:54;;;;;;;;;;;22.40;46.50;;;;;;1634098;71;779;-73
2021/10/14 00:27:56;;;;;;;;;;;22.40;46.50;;;;;;1579089;73;703;-71
2021/10/14 00:29:58;;;;;;;;;;;22.30;46.50;;;;;;1629448;71;670;-73
2021/10/14 00:32:00;;;;;;;;;;;22.30;46.50;;;;;;1636963;71;815;-75
2021/10/14 00:34:02;;;;;;;;;;;22.40;46.50;;;;;;1627404;72;1924;-76
2021/10/14 00:36:04;;;;;;;;;;;22.40;46.60;;;;;;1640130;71;885;-76
2021/10/14 00:38:06;;;;;;;;;;;22.40;46.60;;;;;;1634115;71;806;-75
2021/10/14 00:40:08;;;;;;;;;;;22.40;46.60;;;;;;1638693;71;781;-72
2021/10/14 00:42:11;;;;;;;;;;;22.30;46.60;;;;;;1630013;71;734;-77
2021/10/14 00:44:13;;;;;;;;;;;22.40;46.50;;;;;;1632642;71;1136;-76
2021/10/14 00:46:17;;;;;;;;;;;22.40;46.50;;;;;;1627077;71;710;-73
2021/10/14 00:48:19;;;;;;;;;;;22.40;46.50;;;;;;1627961;71;1098;-76
2021/10/14 00:50:21;;;;;;;;;;;22.30;46.50;;;;;;1624636;71;729;-77
2021/10/14 00:52:23;;;;;;;;;;;22.40;46.50;;;;;;1629648;72;668;-76
2021/10/14 00:54:25;;;;;;;;;;;22.40;46.50;;;;;;1636758;71;1935;-76
2021/10/14 00:56:27;;;;;;;;;;;22.40;46.50;;;;;;1629598;71;794;-74
2021/10/14 00:58:29;;;;;;;;;;;22.40;46.50;;;;;;1631574;71;759;-74
2021/10/14 01:00:31;;;;;;;;;;;22.40;46.40;;;;;;1628334;71;753;-74
2021/10/14 01:02:32;;;;;;;;;;;22.50;46.50;;;;;;1629165;71;772;-76
2021/10/14 01:04:34;;;;;;;;;;;22.40;46.30;;;;;;1628302;72;1213;-74
2021/10/14 01:06:36;;;;;;;;;;;22.40;46.30;;;;;;1578762;73;731;-72
2021/10/14 01:08:38;;;;;;;;;;;22.50;46.40;;;;;;1622511;71;761;-74
2021/10/14 01:10:40;;;;;;;;;;;22.40;46.30;;;;;;1634599;71;726;-72
2021/10/14 01:12:42;;;;;;;;;;;22.50;46.40;;;;;;1643596;72;802;-72
2021/10/14 01:14:44;;;;;;;;;;;22.40;46.30;;;;;;1648035;72;1942;-72
2021/10/14 01:16:46;;;;;;;;;;;22.40;46.20;;;;;;1648628;72;702;-72
2021/10/14 01:18:48;;;;;;;;;;;22.40;46.30;;;;;;1648177;72;717;-69
2021/10/14 01:20:50;;;;;;;;;;;22.40;46.20;;;;;;1642944;72;679;-70
2021/10/14 01:22:52;;;;;;;;;;;22.40;46.30;;;;;;1619394;73;700;-70
2021/10/14 01:24:54;;;;;;;;;;;22.40;46.20;;;;;;1619038;73;1087;-68
2021/10/14 01:26:55;;;;;;;;;;;22.50;46.40;;;;;;1619348;73;694;-71
2021/10/14 01:28:57;;;;;;;;;;;22.40;46.20;;;;;;1619504;73;672;-72
2021/10/14 01:30:59;;;;;;;;;;;22.40;46.20;;;;;;1646081;72;680;-74
2021/10/14 01:33:01;;;;;;;;;;;22.50;46.30;;;;;;1648437;72;1102;-73
2021/10/14 01:35:03;;;;;;;;;;;22.40;46.10;;;;;;1648267;72;1954;-71
2021/10/14 01:37:05;;;;;;;;;;;22.40;46.10;;;;;;1644715;72;761;-72
2021/10/14 01:39:07;;;;;;;;;;;22.40;46.20;;;;;;1620240;72;723;-72
2021/10/14 01:41:09;;;;;;;;;;;22.40;46.20;;;;;;1606107;73;715;-74
2021/10/14 01:43:14;;;;;;;;;;;22.40;46.10;;;;;;1605767;74;1092;-71
2021/10/14 01:45:16;;;;;;;;;;;22.40;46.10;;;;;;1605820;74;771;-72
2021/10/14 01:47:18;;;;;;;;;;;22.40;46.10;;;;;;1605592;74;779;-71
2021/10/14 01:49:20;;;;;;;;;;;22.40;46.20;;;;;;1611718;72;725;-71
2021/10/14 01:51:22;;;;;;;;;;;22.40;46.20;;;;;;1620166;72;779;-69
2021/10/14 01:53:24;;;;;;;;;;;22.40;46.20;;;;;;1619021;73;1926;-69
2021/10/14 01:55:26;;;;;;;;;;;22.40;46.20;;;;;;1578223;73;224550;-69
2021/10/14 01:57:27;;;;;;;;;;;22.40;46.10;;;;;;1508249;77;624;-70
2021/10/14 01:59:29;;;;;;;;;;;22.40;46.00;;;;;;1510384;77;597;-69
2021/10/14 02:01:31;;;;;;;;;;;22.40;46.00;;;;;;1512197;77;715;-69
2021/10/14 02:03:33;;;;;;;;;;;22.40;46.00;;;;;;1473594;79;724;-68
2021/10/14 02:05:35;;;;;;;;;;;22.40;46.00;;;;;;1526200;75;1210;-69
2021/10/14 02:07:37;;;;;;;;;;;22.40;45.90;;;;;;1512203;77;697;-69
2021/10/14 02:09:39;;;;;;;;;;;22.30;45.90;;;;;;1510087;77;726;-68
2021/10/14 02:11:41;;;;;;;;;;;22.40;45.90;;;;;;1509875;77;661;-68
2021/10/14 02:13:42;;;;;;;;;;;22.40;45.90;;;;;;1510121;77;1927;-69
2021/10/14 02:15:44;;;;;;;;;;;22.30;45.80;;;;;;1509764;77;1225;-69
2021/10/14 02:17:46;;;;;;;;;;;22.30;45.80;;;;;;1510647;77;738;-69
2021/10/14 02:19:48;;;;;;;;;;;22.40;45.80;;;;;;1517002;77;704;-70
2021/10/14 02:21:50;;;;;;;;;;;22.30;45.80;;;;;;1520986;77;720;-69
2021/10/14 02:23:52;;;;;;;;;;;22.30;45.80;;;;;;1529571;77;693;-70
2021/10/14 02:25:54;;;;;;;;;;;22.40;45.80;;;;;;1516032;77;1149;-69
2021/10/14 02:27:56;;;;;;;;;;;22.40;45.70;;;;;;1515719;77;690;-69
2021/10/14 02:29:57;;;;;;;;;;;22.40;45.70;;;;;;1521960;77;656;-70
2021/10/14 02:31:59;;;;;;;;;;;22.40;45.70;;;;;;1513304;77;615;-69
2021/10/14 02:34:01;;;;;;;;;;;22.40;45.70;;;;;;1511134;77;1954;-70
2021/10/14 02:36:03;;;;;;;;;;;22.40;45.70;;;;;;1511175;77;1169;-71
2021/10/14 02:38:05;;;;;;;;;;;22.50;45.70;;;;;;1510672;77;737;-69
2021/10/14 02:40:07;;;;;;;;;;;22.60;45.70;;;;;;1510074;77;726;-69
2021/10/14 02:42:09;;;;;;;;;;;22.60;45.40;;;;;;1510786;77;701;-68
2021/10/14 02:44:11;;;;;;;;;;;22.70;45.20;;;;;;1510603;77;745;-69
2021/10/14 02:46:13;;;;;;;;;;;22.80;45.00;;;;;;1508492;77;1124;-70
2021/10/14 02:48:14;;;;;;;;;;;22.80;44.90;;;;;;1515818;77;711;-69
2021/10/14 02:50:16;;;;;;;;;;;22.90;44.80;;;;;;1510131;77;692;-70
2021/10/14 02:52:18;;;;;;;;;;;22.90;44.70;;;;;;1515727;77;764;-70
2021/10/14 02:54:20;;;;;;;;;;;22.90;44.60;;;;;;1522163;77;1945;-68
2021/10/14 02:56:22;;;;;;;;;;;22.90;44.50;;;;;;1508085;77;1119;-68
2021/10/14 02:58:24;;;;;;;;;;;22.90;44.50;;;;;;1511692;77;710;-68
2021/10/14 03:00:26;;;;;;;;;;;23.00;44.50;;;;;;1511712;77;699;-69
2021/10/14 03:02:28;;;;;;;;;;;22.90;44.40;;;;;;1515989;77;795;-69
2021/10/14 03:04:29;;;;;;;;;;;22.90;44.30;;;;;;1513354;77;727;-69
2021/10/14 03:06:31;;;;;;;;;;;22.90;44.40;;;;;;1516492;77;1132;-69
2021/10/14 03:08:33;;;;;;;;;;;22.90;44.50;;;;;;1516682;77;753;-71
2021/10/14 03:10:35;;;;;;;;;;;22.90;44.40;;;;;;1515965;77;725;-69
2021/10/14 03:12:37;;;;;;;;;;;22.90;44.50;;;;;;1516047;77;757;-70
2021/10/14 03:14:39;;;;;;;;;;;22.90;44.40;;;;;;1523712;77;1940;-70
2021/10/14 03:16:41;;;;;;;;;;;22.90;44.20;;;;;;1507236;77;740;-70
2021/10/14 03:18:42;;;;;;;;;;;23.00;44.40;;;;;;1511319;77;767;-70
2021/10/14 03:20:44;;;;;;;;;;;22.90;44.30;;;;;;1511311;77;681;-71
2021/10/14 03:22:46;;;;;;;;;;;23.00;44.20;;;;;;1511809;77;917;-70
2021/10/14 03:24:48;;;;;;;;;;;23.00;44.00;;;;;;1511498;77;1102;-69
2021/10/14 03:26:50;;;;;;;;;;;22.90;44.00;;;;;;1513393;77;680;-70
2021/10/14 03:28:53;;;;;;;;;;;22.80;44.20;;;;;;1515530;77;795;-71
2021/10/14 03:30:55;;;;;;;;;;;22.70;44.30;;;;;;1515180;77;713;-69
2021/10/14 03:32:57;;;;;;;;;;;22.70;44.40;;;;;;1494733;78;669;-70
2021/10/14 03:34:59;;;;;;;;;;;22.60;44.30;;;;;;1475558;79;1943;-72
2021/10/14 03:37:01;;;;;;;;;;;22.70;44.40;;;;;;1474187;79;716;-70
2021/10/14 03:39:03;;;;;;;;;;;22.60;44.40;;;;;;1469664;79;823;-70
2021/10/14 03:41:05;;;;;;;;;;;22.60;44.50;;;;;;1474235;79;748;-69
2021/10/14 03:43:07;;;;;;;;;;;22.60;44.50;;;;;;1472707;79;711;-69
2021/10/14 03:45:09;;;;;;;;;;;22.60;44.60;;;;;;1470480;79;1184;-71
2021/10/14 03:47:11;;;;;;;;;;;22.60;44.40;;;;;;1471272;79;701;-70
2021/10/14 03:49:13;;;;;;;;;;;22.60;44.40;;;;;;1467949;79;831;-71
2021/10/14 03:51:15;;;;;;;;;;;22.60;44.40;;;;;;1469348;79;694;-70
2021/10/14 03:53:17;;;;;;;;;;;22.60;44.30;;;;;;1473035;79;733;-72
2021/10/14 03:55:18;;;;;;;;;;;22.60;44.30;;;;;;1468681;79;1941;-71
2021/10/14 03:57:20;;;;;;;;;;;22.70;44.40;;;;;;1468413;79;798;-70
2021/10/14 03:59:22;;;;;;;;;;;22.70;44.20;;;;;;1469756;79;644;-70
2021/10/14 04:01:24;;;;;;;;;;;22.70;44.10;;;;;;1469231;79;751;-71
2021/10/14 04:03:26;;;;;;;;;;;22.80;43.90;;;;;;1469963;79;792;-71
2021/10/14 04:05:28;;;;;;;;;;;23.00;43.80;;;;;;1472443;79;1148;-71
2021/10/14 04:07:30;;;;;;;;;;;23.10;43.60;;;;;;1457569;81;731;-70
2021/10/14 04:09:31;;;;;;;;;;;23.10;43.40;;;;;;1460231;79;788;-71
2021/10/14 04:11:33;;;;;;;;;;;23.20;43.20;;;;;;1471364;81;655;-72
2021/10/14 04:13:35;;;;;;;;;;;23.20;43.20;;;;;;1461969;80;742;-71
2021/10/14 04:15:37;;;;;;;;;;;23.20;43.20;;;;;;1459879;81;1945;-71
2021/10/14 04:17:39;;;;;;;;;;;23.20;43.20;;;;;;1460252;80;733;-71
2021/10/14 04:19:41;;;;;;;;;;;23.10;43.20;;;;;;1467521;79;730;-70
2021/10/14 04:21:43;;;;;;;;;;;23.10;43.10;;;;;;1471041;80;721;-70
2021/10/14 04:23:45;;;;;;;;;;;23.20;43.10;;;;;;1471237;81;702;-70
2021/10/14 04:25:47;;;;;;;;;;;23.20;43.00;;;;;;1471189;79;1122;-68
2021/10/14 04:27:49;;;;;;;;;;;23.20;43.10;;;;;;1467860;79;690;-68
2021/10/14 04:29:50;;;;;;;;;;;23.20;43.00;;;;;;1471479;79;567;-70
2021/10/14 04:31:52;;;;;;;;;;;23.20;43.10;;;;;;1495372;79;738;-71
2021/10/14 04:33:54;;;;;;;;;;;23.10;43.10;;;;;;1495260;79;644;-71
2021/10/14 04:35:57;;;;;;;;;;;23.10;43.20;;;;;;1489735;79;1942;-70
2021/10/14 04:37:59;;;;;;;;;;;23.10;43.30;;;;;;1471066;80;733;-73
2021/10/14 04:40:00;;;;;;;;;;;23.10;43.30;;;;;;1471035;79;645;-72
2021/10/14 04:42:03;;;;;;;;;;;23.10;43.30;;;;;;1471185;79;711;-71
2021/10/14 04:44:05;;;;;;;;;;;23.20;43.30;;;;;;1470079;79;705;-68
2021/10/14 04:46:07;;;;;;;;;;;23.10;43.10;;;;;;1475352;79;1534;-71
2021/10/14 04:48:09;;;;;;;;;;;23.20;43.10;;;;;;1475826;79;723;-70
2021/10/14 04:50:10;;;;;;;;;;;23.20;43.10;;;;;;1471036;79;770;-67
2021/10/14 04:52:12;;;;;;;;;;;23.20;43.10;;;;;;1468226;79;792;-70
2021/10/14 04:54:14;;;;;;;;;;;23.20;43.10;;;;;;1477159;79;667;-69
2021/10/14 04:56:16;;;;;;;;;;;23.20;43.20;;;;;;1477208;79;1938;-71
2021/10/14 04:58:18;;;;;;;;;;;23.10;43.10;;;;;;1476475;79;797;-70
2021/10/14 05:00:20;;;;;;;;;;;23.20;43.20;;;;;;1475834;79;744;-73
2021/10/14 05:02:22;;;;;;;;;;;23.10;43.20;;;;;;1469767;79;827;-71
2021/10/14 05:04:24;;;;;;;;;;;23.20;43.10;;;;;;1472026;79;781;-70
2021/10/14 05:06:25;;;;;;;;;;;23.20;43.10;;;;;;1469736;79;1155;-71
2021/10/14 05:08:27;;;;;;;;;;;23.10;43.10;;;;;;1467685;79;745;-69
2021/10/14 05:10:31;;;;;;;;;;;23.10;43.10;;;;;;1468613;79;761;-72
2021/10/14 05:12:33;;;;;;;;;;;23.20;43.20;;;;;;1468329;79;652;-67
2021/10/14 05:14:35;;;;;;;;;;;23.10;43.20;;;;;;1472514;79;1938;-69
2021/10/14 05:16:36;;;;;;;;;;;23.00;43.40;;;;;;1468387;79;1119;-70
2021/10/14 05:18:38;;;;;;;;;;;23.00;43.70;;;;;;1476523;79;792;-71
2021/10/14 05:20:40;;;;;;;;;;;23.10;43.50;;;;;;1472856;79;721;-70
2021/10/14 05:22:42;;;;;;;;;;;23.10;43.20;;;;;;1470426;79;705;-70
2021/10/14 05:24:44;;;;;;;;;;;23.10;43.20;;;;;;1463826;79;1171;-71
2021/10/14 05:26:46;;;;;;;;;;;23.10;43.30;;;;;;1483684;79;654;-70
2021/10/14 05:28:48;;;;;;;;;;;23.00;43.10;;;;;;1495504;79;734;-74
2021/10/14 05:30:49;;;;;;;;;;;23.10;43.50;;;;;;1473948;81;734;-70
2021/10/14 05:32:51;;;;;;;;;;;23.10;43.30;;;;;;1473750;79;758;-76
2021/10/14 05:34:53;;;;;;;;;;;23.10;43.40;;;;;;1448087;82;1925;-71
2021/10/14 05:36:55;;;;;;;;;;;23.10;43.50;;;;;;1447968;82;702;-72
2021/10/14 05:38:57;;;;;;;;;;;23.10;43.40;;;;;;1448109;82;705;-72
2021/10/14 05:40:59;;;;;;;;;;;23.20;43.20;;;;;;1459236;79;734;-73
2021/10/14 05:43:01;;;;;;;;;;;23.20;43.10;;;;;;1471036;79;799;-71
2021/10/14 05:45:03;;;;;;;;;;;23.10;43.10;;;;;;1448342;81;1188;-71
2021/10/14 05:47:05;;;;;;;;;;;23.10;43.20;;;;;;1448092;81;741;-69
2021/10/14 05:49:07;;;;;;;;;;;23.10;43.10;;;;;;1464926;79;707;-70
2021/10/14 05:51:09;;;;;;;;;;;23.20;43.10;;;;;;1481516;79;724;-69
2021/10/14 05:53:11;;;;;;;;;;;23.10;43.20;;;;;;1471145;79;864;-69
2021/10/14 05:55:12;;;;;;;;;;;23.00;43.10;;;;;;1471050;80;1971;-69
2021/10/14 05:57:14;;;;;;;;;;;22.90;43.30;;;;;;1471301;80;777;-69
2021/10/14 05:59:16;;;;;;;;;;;23.00;43.40;;;;;;1471397;81;682;-68
2021/10/14 06:01:18;;;;;;;;;;;23.00;43.30;;;;;;1471353;79;558;-70
2021/10/14 06:03:20;;;;;;;;;;;23.00;43.30;;;;;;1471535;79;791;-69
2021/10/14 06:05:22;;;;;;;;;;;22.90;43.30;;;;;;1471193;80;1231;-70
2021/10/14 06:07:25;;;;;;;;;;;22.90;43.40;;;;;;1470888;81;810;-71
2021/10/14 06:09:27;;;;;;;;;;;22.90;43.40;;;;;;1468664;80;778;-70
2021/10/14 06:11:29;;;;;;;;;;;22.90;43.50;;;;;;1467212;79;722;-70
2021/10/14 06:13:31;;;;;;;;;;;22.80;43.40;;;;;;1466345;79;787;-70
2021/10/14 06:15:33;;;;;;;;;;;22.80;43.40;;;;;;1479176;79;1938;-68
2021/10/14 06:17:35;;;;;;;;;;;22.70;43.50;;;;;;1469054;79;757;-70
2021/10/14 06:19:37;;;;;;;;;;;22.80;43.30;;;;;;1471043;79;710;-69
2021/10/14 06:21:39;;;;;;;;;;;22.80;42.50;;;;;;1454412;80;1116;-68
2021/10/14 06:23:41;;;;;;;;;;;22.80;41.60;;;;;;1468298;79;775;-69
2021/10/14 06:25:42;;;;;;;;;;;22.70;39.90;;;;;;1472872;79;1095;-69
2021/10/14 06:27:44;;;;;;;;;;;22.60;40.00;;;;;;1473136;79;799;-69
2021/10/14 06:29:46;;;;;;;;;;;22.60;39.70;;;;;;1468039;79;713;-72
2021/10/14 06:31:48;;;;;;;;;;;22.50;39.10;;;;;;1474416;79;688;-69
2021/10/14 06:33:50;;;;;;;;;;;22.50;39.50;;;;;;1469359;79;712;-71
2021/10/14 06:35:52;;;;;;;;;;;22.40;39.10;;;;;;1478008;79;1942;-72
2021/10/14 06:37:55;;;;;;;;;;;22.40;38.90;;;;;;1468667;79;785;-71
2021/10/14 06:39:57;;;;;;;;;;;22.30;38.60;;;;;;1467873;79;625;-72
2021/10/14 06:42:01;;;;;;;;;;;22.30;38.40;;;;;;1469464;79;704;-72
2021/10/14 06:44:03;;;;;;;;;;;22.20;38.00;;;;;;1472091;79;1154;-71
2021/10/14 06:46:05;;;;;;;;;;;22.10;37.80;;;;;;1478763;79;1179;-68
2021/10/14 06:48:08;;;;;;;;;;;22.10;37.50;;;;;;1476251;79;715;-71
2021/10/14 06:50:10;;;;;;;;;;;22.10;37.60;;;;;;1473723;79;665;-70
2021/10/14 06:52:12;;;;;;;;;;;22.00;37.40;;;;;;1469689;79;756;-71
2021/10/14 06:54:14;;;;;;;;;;;22.00;37.30;;;;;;1468848;79;668;-72
2021/10/14 06:56:16;;;;;;;;;;;21.90;37.10;;;;;;1468420;79;1924;-71
2021/10/14 06:58:18;;;;;;;;;;;21.80;36.90;;;;;;1481153;79;675;-72
2021/10/14 07:00:22;;;;;;;;;;;21.80;36.80;;;;;;1481616;79;661;-73
2021/10/14 07:02:23;;;;;;;;;;;21.80;36.80;;;;;;1457299;79;1122;-72
2021/10/14 07:04:25;;;;;;;;;;;21.80;36.70;;;;;;1477765;79;703;-71
2021/10/14 07:06:27;;;;;;;;;;;21.70;36.60;;;;;;1467752;79;1155;-70
2021/10/14 07:08:29;;;;;;;;;;;21.70;36.60;;;;;;1480437;79;706;-70
2021/10/14 07:10:31;;;;;;;;;;;21.70;36.60;;;;;;1482674;79;738;-70
2021/10/14 07:12:33;;;;;;;;;;;21.60;36.50;;;;;;1478030;79;729;-70
2021/10/14 07:14:35;;;;;;;;;;;21.60;36.50;;;;;;1472396;79;724;-70
2021/10/14 07:16:37;;;;;;;;;;;21.50;36.40;;;;;;1471478;79;1963;-71
2021/10/14 07:18:39;;;;;;;;;;;21.60;36.50;;;;;;1480750;79;660;-71
2021/10/14 07:20:41;;;;;;;;;;;21.50;36.40;;;;;;1469521;79;762;-71
2021/10/14 07:22:43;;;;;;;;;;;21.40;36.20;;;;;;1481530;79;715;-70
2021/10/14 07:24:45;;;;;;;;;;;21.50;36.30;;;;;;1474734;79;1179;-69
2021/10/14 07:26:46;;;;;;;;;;;21.40;36.30;;;;;;1471210;79;716;-69
2021/10/14 07:28:48;;;;;;;;;;;21.40;36.10;;;;;;1482329;79;823;-70
2021/10/14 07:30:54;;;;;;;;;;;21.40;36.10;;;;;;1479883;79;690;-70
2021/10/14 07:32:54;;;;;;;;;;;21.30;36.10;;;;;;1467646;79;1318;-72
2021/10/14 07:34:56;;;;;;;;;;;21.30;36.20;;;;;;1471508;79;1139;-72
2021/10/14 07:36:57;;;;;;;;;;;21.30;36.30;;;;;;1473975;79;1940;-70
2021/10/14 07:39:01;;;;;;;;;;;21.30;36.20;;;;;;1473386;79;724;-69
2021/10/14 07:41:03;;;;;;;;;;;21.20;36.00;;;;;;1470165;79;1549;-71
2021/10/14 07:43:05;;;;;;;;;;;21.20;36.00;;;;;;1478080;79;679;-71
2021/10/14 07:45:07;;;;;;;;;;;21.10;36.00;;;;;;1472058;79;1134;-70
2021/10/14 07:47:09;;;;;;;;;;;21.20;36.00;;;;;;1464628;79;727;-69
2021/10/14 07:49:11;;;;;;;;;;;21.20;36.00;;;;;;1470161;79;682;-69
2021/10/14 07:51:13;;;;;;;;;;;21.10;36.00;;;;;;1474228;79;753;-70
2021/10/14 07:53:16;;;;;;;;;;;21.10;36.00;;;;;;1470483;79;826;-68
2021/10/14 07:55:18;;;;;;;;;;;21.10;36.00;;;;;;1471417;73;3187;-67
2021/10/14 07:57:20;;;;;;;;;;;21.00;35.90;;;;;;1583387;75;1922;-68
2021/10/14 07:59:22;;;;;;;;;;;21.00;36.00;;;;;;1584019;75;814;-68
2021/10/14 08:01:23;;;;;;;;;;;21.00;36.00;;;;;;1585515;75;769;-67
2021/10/14 08:03:25;;;;;;;;;;;21.00;36.00;;;;;;1584854;75;809;-69
2021/10/14 08:05:27;;;;;;;;;;;21.00;36.10;;;;;;1582603;74;1202;-67
2021/10/14 08:07:29;;;;;;;;;;;21.00;36.00;;;;;;1585139;75;704;-67
2021/10/14 08:09:31;;;;;;;;;;;20.90;36.00;;;;;;1601908;74;725;-67
2021/10/14 08:11:33;;;;;;;;;;;20.90;36.00;;;;;;1600256;74;706;-65
2021/10/14 08:13:35;;;;;;;;;;;20.90;36.10;;;;;;1581753;75;800;-67
2021/10/14 08:15:36;;;;;;;;;;;20.90;36.20;;;;;;1602909;73;1951;-67
2021/10/14 08:17:38;;;;;;;;;;;20.90;36.20;;;;;;1588616;75;714;-70
2021/10/14 08:19:40;;;;;;;;;;;20.90;36.20;;;;;;1588204;75;730;-70
2021/10/14 08:21:42;;;;;;;;;;;21.00;37.00;;;;;;1567330;75;811;-72
2021/10/14 08:23:44;;;;;;;;;;;21.10;37.70;;;;;;1584946;74;662;-71
2021/10/14 08:25:46;;;;;;;;;;;21.10;38.50;;;;;;1586514;74;1142;-71
2021/10/14 08:27:48;;;;;;;;;;;21.20;38.60;;;;;;1579761;75;783;-72
2021/10/14 08:29:50;;;;;;;;;;;21.20;39.50;;;;;;1560031;75;667;-71
2021/10/14 08:31:52;;;;;;;;;;;21.20;39.70;;;;;;1560601;75;789;-72
2021/10/14 08:33:54;;;;;;;;;;;21.30;39.70;;;;;;1601072;73;742;-72
2021/10/14 08:35:56;;;;;;;;;;;21.40;39.60;;;;;;1580023;73;1932;-72
2021/10/14 08:37:58;;;;;;;;;;;21.50;39.70;;;;;;1596581;74;699;-71
2021/10/14 08:40:00;;;;;;;;;;;21.50;39.70;;;;;;1580757;75;671;-71
2021/10/14 08:42:02;;;;;;;;;;;21.40;39.70;;;;;;1582617;74;926;-72
2021/10/14 08:44:04;;;;;;;;;;;21.40;39.80;;;;;;1585369;74;740;-72
2021/10/14 08:46:06;;;;;;;;;;;21.40;39.80;;;;;;1585117;73;1129;-70
2021/10/14 08:48:08;;;;;;;;;;;21.40;39.90;;;;;;1612030;72;807;-71
2021/10/14 08:50:10;;;;;;;;;;;21.40;39.90;;;;;;1576746;74;730;-70
2021/10/14 08:52:13;;;;;;;;;;;21.40;39.90;;;;;;1583125;74;743;-73
2021/10/14 08:54:15;;;;;;;;;;;21.40;39.90;;;;;;1592676;74;1090;-72
2021/10/14 08:56:16;;;;;;;;;;;21.50;40.20;;;;;;1583419;73;1947;-72
2021/10/14 08:58:19;;;;;;;;;;;21.50;40.20;;;;;;1585260;75;694;-71
2021/10/14 09:00:21;;;;;;;;;;;21.50;40.20;;;;;;1572785;75;827;-71
2021/10/14 09:02:24;;;;;;;;;;;21.50;40.20;;;;;;1587289;74;756;-73
2021/10/14 09:04:26;;;;;;;;;;;21.50;40.20;;;;;;1575990;74;796;-72
2021/10/14 09:06:27;;;;;;;;;;;21.50;40.20;;;;;;1591965;73;1123;-71
2021/10/14 09:08:42;;;;;;;;;;;21.50;40.30;;;;;;1571823;74;837;-73
2021/10/14 09:10:44;;;;;;;;;;;21.60;40.30;;;;;;1600177;73;712;-73
2021/10/14 09:12:47;;;;;;;;;;;21.60;40.40;;;;;;1608037;73;666;-72
2021/10/14 09:14:56;;;;;;;;;;;21.60;40.40;;;;;;1606523;73;718;-71
2021/10/14 09:16:58;;;;;;;;;;;21.60;40.50;;;;;;1597576;73;1933;-71
2021/10/14 09:19:16;;;;;;;;;;;21.60;40.50;;;;;;1593166;73;739;-71
2021/10/14 09:21:23;;;;;;;;;;;21.60;40.60;;;;;;1605117;73;617;-72
2021/10/14 09:23:27;;;;;;;;;;;21.60;40.60;;;;;;1605227;73;1745;-71
2021/10/14 09:25:29;;;;;;;;;;;21.60;40.70;;;;;;1639226;71;1541;-71
2021/10/14 09:27:31;;;;;;;;;;;21.60;40.70;;;;;;1602653;73;799;-71
2021/10/14 09:29:34;;;;;;;;;;;21.60;40.80;;;;;;1643669;71;805;-72
2021/10/14 09:31:50;;;;;;;;;;;21.60;40.80;;;;;;1612309;73;795;-71
2021/10/14 09:33:52;;;;;;;;;;;21.60;40.90;;;;;;1606885;73;1069;-71
2021/10/14 09:35:54;;;;;;;;;;;21.60;40.90;;;;;;1576002;73;1146;-72
2021/10/14 09:37:56;;;;;;;;;;;21.60;41.00;;;;;;1586359;74;1929;-72
2021/10/14 09:40:02;;;;;;;;;;;21.60;41.00;;;;;;1585918;74;784;-72
2021/10/14 09:42:04;;;;;;;;;;;21.60;41.00;;;;;;1578988;74;680;-71
2021/10/14 09:44:07;;;;;;;;;;;21.60;41.00;;;;;;1586608;74;683;-73
2021/10/14 09:46:09;;;;;;;;;;;21.60;41.10;;;;;;1579623;73;1074;-67
2021/10/14 09:48:15;;;;;;;;;;;21.70;41.20;;;;;;1579886;74;764;-68
2021/10/14 09:50:17;;;;;;;;;;;21.60;41.20;;;;;;1568980;75;849;-69
2021/10/14 09:52:19;;;;;;;;;;;21.60;41.20;;;;;;1578454;74;649;-68
2021/10/14 09:54:21;;;;;;;;;;;21.70;41.40;;;;;;1600280;74;809;-70
2021/10/14 09:56:23;;;;;;;;;;;21.70;41.40;;;;;;1592146;73;1950;-67
2021/10/14 09:58:25;;;;;;;;;;;21.80;41.60;;;;;;1597391;74;777;-67
2021/10/14 10:00:28;;;;;;;;;;;21.80;41.80;;;;;;1577068;74;665;-68
2021/10/14 10:02:30;;;;;;;;;;;21.80;42.60;;;;;;1591544;74;710;-66
2021/10/14 10:04:32;;;;;;;;;;;21.90;42.50;;;;;;1593631;74;705;-66
2021/10/14 10:06:34;;;;;;;;;;;21.90;42.20;;;;;;1582594;73;1197;-66
2021/10/14 10:08:37;;;;;;;;;;;22.00;42.00;;;;;;1539917;76;669;-67
2021/10/14 10:10:40;;;;;;;;;;;22.00;42.00;;;;;;1585022;74;745;-66
2021/10/14 10:12:42;;;;;;;;;;;21.90;42.00;;;;;;1553979;76;812;-65
2021/10/14 10:14:44;;;;;;;;;;;21.90;42.00;;;;;;1575245;74;692;-66
2021/10/14 10:16:55;;;;;;;;;;;22.00;42.00;;;;;;1607337;72;1936;-66
2021/10/14 10:18:59;;;;;;;;;;;22.00;41.90;;;;;;1576535;74;681;-67
2021/10/14 10:21:02;;;;;;;;;;;22.00;41.90;;;;;;1572548;74;726;-66
2021/10/14 10:23:03;;;;;;;;;;;22.00;42.00;;;;;;1575741;74;760;-66
2021/10/14 10:25:25;;;;;;;;;;;21.90;42.00;;;;;;1569540;74;1131;-67
2021/10/14 10:27:31;;;;;;;;;;;22.00;42.00;;;;;;1577131;74;902;-67
2021/10/14 10:29:35;;;;;;;;;;;22.00;42.00;;;;;;1571344;74;1086;-66
2021/10/14 10:31:55;;;;;;;;;;;22.00;42.10;;;;;;1582768;74;934;-67
2021/10/14 10:34:00;;;;;;;;;;;22.00;42.10;;;;;;1573353;74;741;-67
2021/10/14 10:36:00;;;;;;;;;;;22.00;42.10;;;;;;1586198;74;1685;-66
2021/10/14 10:38:04;;;;;;;;;;;22.00;42.10;;;;;;1575708;74;1922;-67
2021/10/14 10:40:15;;;;;;;;;;;22.00;42.10;;;;;;1582946;74;1715;-67
2021/10/14 10:42:27;;;;;;;;;;;22.00;42.10;;;;;;1539000;76;762;-65
2021/10/14 10:44:30;;;;;;;;;;;22.00;42.10;;;;;;1584514;74;723;-65
2021/10/14 10:46:32;;;;;;;;;;;22.00;42.10;;;;;;1578391;74;1688;-66
2021/10/14 10:48:35;;;;;;;;;;;22.00;42.10;;;;;;1589723;74;734;-66
2021/10/14 10:50:38;;;;;;;;;;;22.00;42.10;;;;;;1586128;74;707;-66
2021/10/14 10:52:41;;;;;;;;;;;22.00;42.10;;;;;;1580894;74;768;-65
2021/10/14 10:54:45;;;;;;;;;;;22.10;42.20;;;;;;1588337;74;807;-67
2021/10/14 10:56:46;;;;;;;;;;;22.00;42.00;;;;;;1577836;74;1942;-67
2021/10/14 10:58:48;;;;;;;;;;;22.10;42.10;;;;;;1569783;75;902;-64
2021/10/14 11:00:50;;;;;;;;;;;22.00;42.10;;;;;;1578366;74;784;-64
2021/10/14 11:03:08;;;;;;;;;;;22.00;42.00;;;;;;1580023;74;743;-66
2021/10/14 11:05:10;;;;;;;;;;;22.00;42.10;;;;;;1583359;73;1166;-67
2021/10/14 11:07:12;;;;;;;;;;;22.00;42.10;;;;;;1583461;74;799;-67
2021/10/14 11:09:15;;;;;;;;;;;22.10;42.10;;;;;;1586608;74;748;-67
2021/10/14 11:11:18;;;;;;;;;;;22.10;42.10;;;;;;1579588;74;659;-67
2021/10/14 11:13:20;;;;;;;;;;;22.10;42.10;;;;;;1583887;74;835;-66
2021/10/14 11:15:22;;;;;;;;;;;22.00;42.00;;;;;;1538574;76;1165;-66
2021/10/14 11:17:25;;;;;;;;;;;22.00;42.00;;;;;;1586165;74;1934;-66
2021/10/14 11:19:27;;;;;;;;;;;22.10;42.10;;;;;;1537299;76;770;-66
2021/10/14 11:21:29;;;;;;;;;;;22.10;42.00;;;;;;1581823;74;786;-65
2021/10/14 11:23:45;;;;;;;;;;;22.00;41.90;;;;;;1573283;75;738;-66
2021/10/14 11:25:49;;;;;;;;;;;22.00;41.90;;;;;;1579074;74;1222;-66
2021/10/14 11:28:04;;;;;;;;;;;22.00;41.80;;;;;;1591817;74;1686;-68
2021/10/14 11:30:15;;;;;;;;;;;22.10;42.00;;;;;;1580441;74;726;-65
2021/10/14 11:32:20;;;;;;;;;;;22.00;41.90;;;;;;1587947;74;1718;-65
2021/10/14 11:34:21;;;;;;;;;;;22.10;42.00;;;;;;1562063;75;1657;-65
2021/10/14 11:36:23;;;;;;;;;;;22.10;42.00;;;;;;1574978;73;1099;-66
2021/10/14 11:38:25;;;;;;;;;;;22.10;42.00;;;;;;1578583;74;1938;-65
2021/10/14 11:40:37;;;;;;;;;;;22.00;41.90;;;;;;1570299;75;720;-66
2021/10/14 11:42:39;;;;;;;;;;;22.00;41.90;;;;;;1582661;74;777;-66
2021/10/14 11:44:43;;;;;;;;;;;22.10;42.00;;;;;;1574409;75;760;-65
2021/10/14 11:46:45;;;;;;;;;;;22.10;42.00;;;;;;1587232;73;1125;-66
2021/10/14 11:48:47;;;;;;;;;;;22.10;42.00;;;;;;1583604;74;780;-65
2021/10/14 11:50:51;;;;;;;;;;;22.10;42.10;;;;;;1557952;75;1181;-65
2021/10/14 11:52:59;;;;;;;;;;;22.00;42.00;;;;;;1597317;74;2155;-65
2021/10/14 11:55:05;;;;;;;;;;;22.10;42.10;;;;;;1603334;74;1145;-66
2021/10/14 11:57:07;;;;;;;;;;;22.00;42.00;;;;;;1593018;74;1943;-66
2021/10/14 11:59:09;;;;;;;;;;;22.00;42.00;;;;;;1591714;74;806;-64
2021/10/14 12:01:12;;;;;;;;;;;22.10;42.10;;;;;;1587886;74;792;-66
2021/10/14 12:03:14;;;;;;;;;;;22.00;42.00;;;;;;1578619;75;750;-67
2021/10/14 12:05:16;;;;;;;;;;;22.00;42.00;;;;;;1544663;76;1160;-64
2021/10/14 12:07:18;;;;;;;;;;;22.00;42.10;;;;;;1574787;74;709;-66
2021/10/14 12:09:20;;;;;;;;;;;22.00;42.10;;;;;;1573593;74;764;-66
2021/10/14 12:11:23;;;;;;;;;;;22.00;42.10;;;;;;1567501;75;775;-67